Map

Track Data

SID SEASON NUMBER BASIN SUBBASIN NAME ISO_TIME NATURE LAT LON WMO_WIND WMO_PRES WMO_AGENCY TRACK_TYPE DIST2LAND LANDFALL IFLAG USA_AGENCY USA_ATCF_ID USA_LAT USA_LON USA_RECORD USA_STATUS USA_WIND USA_PRES USA_SSHS USA_R34_NE USA_R34_SE USA_R34_SW USA_R34_NW USA_R50_NE USA_R50_SE USA_R50_SW USA_R50_NW USA_R64_NE USA_R64_SE USA_R64_SW USA_R64_NW USA_POCI USA_ROCI USA_RMW USA_EYE TOKYO_LAT TOKYO_LON TOKYO_GRADE TOKYO_WIND TOKYO_PRES TOKYO_R50_DIR TOKYO_R50_LONG TOKYO_R50_SHORT TOKYO_R30_DIR TOKYO_R30_LONG TOKYO_R30_SHORT TOKYO_LAND CMA_LAT CMA_LON CMA_CAT CMA_WIND CMA_PRES HKO_LAT HKO_LON HKO_CAT HKO_WIND HKO_PRES NEWDELHI_LAT NEWDELHI_LON NEWDELHI_GRADE NEWDELHI_WIND NEWDELHI_PRES NEWDELHI_CI NEWDELHI_DP NEWDELHI_POCI REUNION_LAT REUNION_LON REUNION_TYPE REUNION_WIND REUNION_PRES REUNION_TNUM REUNION_CI REUNION_RMW REUNION_R34_NE REUNION_R34_SE REUNION_R34_SW REUNION_R34_NW REUNION_R50_NE REUNION_R50_SE REUNION_R50_SW REUNION_R50_NW REUNION_R64_NE REUNION_R64_SE REUNION_R64_SW REUNION_R64_NW BOM_LAT BOM_LON BOM_TYPE BOM_WIND BOM_PRES BOM_TNUM BOM_CI BOM_RMW BOM_R34_NE BOM_R34_SE BOM_R34_SW BOM_R34_NW BOM_R50_NE BOM_R50_SE BOM_R50_SW BOM_R50_NW BOM_R64_NE BOM_R64_SE BOM_R64_SW BOM_R64_NW BOM_ROCI BOM_POCI BOM_EYE BOM_POS_METHOD BOM_PRES_METHOD NADI_LAT NADI_LON NADI_CAT NADI_WIND NADI_PRES WELLINGTON_LAT WELLINGTON_LON WELLINGTON_WIND WELLINGTON_PRES DS824_LAT DS824_LON DS824_STAGE DS824_WIND DS824_PRES TD9636_LAT TD9636_LON TD9636_STAGE TD9636_WIND TD9636_PRES TD9635_LAT TD9635_LON TD9635_WIND TD9635_PRES TD9635_ROCI NEUMANN_LAT NEUMANN_LON NEUMANN_CLASS NEUMANN_WIND NEUMANN_PRES MLC_LAT MLC_LON MLC_CLASS MLC_WIND MLC_PRES USA_GUST BOM_GUST BOM_GUST_PER REUNION_GUST REUNION_GUST_PER USA_SEAHGT USA_SEARAD_NE USA_SEARAD_SE USA_SEARAD_SW USA_SEARAD_NW STORM_SPEED STORM_DIR
1916198S22130 1917 34 SI WA NOT_NAMED 1916-07-15 12:00:00 NR -22.2000 129.700 main 0 0 __________O___ -1 -22.2000 129.700 7 3 0
1916198S22130 1917 34 SI WA NOT_NAMED 1916-07-15 15:00:00 NR -22.3376 129.708 main 0 0 __________P___ -1 -22.3376 129.708 7 3 0
1916198S22130 1917 34 SI WA NOT_NAMED 1916-07-15 18:00:00 NR -22.5101 129.712 main 0 0 __________P___ -1 -22.5101 129.712 7 4 0
1916198S22130 1917 34 SI WA NOT_NAMED 1916-07-15 21:00:00 NR -22.7526 129.711 main 0 0 __________P___ -1 -22.7526 129.711 7 6 0
1916198S22130 1917 34 SI WA NOT_NAMED 1916-07-16 00:00:00 NR -23.1000 129.700 main 0 0 __________O___ -1 -23.1000 129.700 7 8 181
1916198S22130 1917 34 SI WA NOT_NAMED 1916-07-16 03:00:00 NR -23.5804 129.684 main 0 0 __________P___ -1 -23.5804 129.684 7 11 0
1916198S22130 1917 34 SI WA NOT_NAMED 1916-07-16 06:00:00 NR -24.1945 129.700 main 0 0 __________P___ -1 -24.1945 129.700 7 14 176
1916198S22130 1917 34 SI WA NOT_NAMED 1916-07-16 09:00:00 NR -24.9363 129.790 main 0 0 __________P___ -1 -24.9363 129.790 7 16 170
1916198S22130 1917 34 SI WA NOT_NAMED 1916-07-16 12:00:00 NR -25.8000 130.000 main 0 0 __________O___ -1 -25.8000 130.000 7 20 165
1916198S22130 1917 34 SI WA NOT_NAMED 1916-07-16 15:00:00 NR -26.8452 130.358 main 0 0 __________P___ -1 -26.8452 130.358 7 23 161
1916198S22130 1917 34 SI WA NOT_NAMED 1916-07-16 18:00:00 NR -27.9874 130.848 main 0 0 __________P___ -1 -27.9874 130.848 7 25 157
1916198S22130 1917 34 SI WA NOT_NAMED 1916-07-16 21:00:00 NR -29.1108 131.440 main 0 0 __________P___ -1 -29.1108 131.440 7 24 153
1916198S22130 1917 34 SI WA NOT_NAMED 1916-07-17 00:00:00 NR -30.1000 132.100 main 0 0 __________O___ -1 -30.1000 132.100 7 21 145
1916198S22130 1917 34 SI WA NOT_NAMED 1916-07-17 03:00:00 NR -30.7971 132.784 main 0 0 __________P___ -1 -30.7971 132.784 7 17 136
1916198S22130 1917 34 SI WA NOT_NAMED 1916-07-17 06:00:00 NR -31.3504 133.519 main 0 0 __________P___ -1 -31.3504 133.519 7 16 129
1916198S22130 1917 34 SI WA NOT_NAMED 1916-07-17 09:00:00 NR -31.8283 134.268 main 0 0 __________P___ -1 -31.8283 134.268 7 16 127
1916198S22130 1917 34 SP EA NOT_NAMED 1916-07-17 12:00:00 NR -32.3000 135.000 main 0 0 __________O___ -1 -32.3000 135.000 7 16 131
1916198S22130 1917 34 SP EA NOT_NAMED 1916-07-17 15:00:00 NR -32.8755 135.713 main 0 0 __________P___ -1 -32.8755 135.713 7 17 135
1916198S22130 1917 34 SP EA NOT_NAMED 1916-07-17 18:00:00 NR -33.4573 136.398 main 0 0 __________P___ -1 -33.4573 136.398 7 16 136
1916198S22130 1917 34 SP EA NOT_NAMED 1916-07-17 21:00:00 NR -34.0353 137.034 main 24 0 __________P___ -1 -34.0353 137.034 7 15 139
1916198S22130 1917 34 SP EA NOT_NAMED 1916-07-18 00:00:00 NR -34.6000 137.600 main 0 0 __________O___ -1 -34.6000 137.600 7 14 142
1916198S22130 1917 34 SP EA NOT_NAMED 1916-07-18 03:00:00 NR -35.1295 138.088 main 35 0 __________P___ -1 -35.1295 138.088 7 13 145
1916198S22130 1917 34 SP EA NOT_NAMED 1916-07-18 06:00:00 NR -35.6479 138.502 main 0 0 __________P___ -1 -35.6479 138.502 7 12 149
1916198S22130 1917 34 SP EA NOT_NAMED 1916-07-18 09:00:00 NR -36.1675 138.865 main 55 54 __________P___ -1 -36.1675 138.865 7 12 152
1916198S22130 1917 34 SP EA NOT_NAMED 1916-07-18 12:00:00 NR -36.7000 139.200 main 54 17 __________O___ -1 -36.7000 139.200 7 12 154
1916198S22130 1917 34 SP EA NOT_NAMED 1916-07-18 15:00:00 NR -37.2059 139.494 main 17 14 __________P___ -1 -37.2059 139.494 7 11 156
1916198S22130 1917 34 SP EA NOT_NAMED 1916-07-18 18:00:00 NR -37.7346 139.773 main 28 28 __________P___ -1 -37.7346 139.773 7 12 157
1916198S22130 1917 34 SP EA NOT_NAMED 1916-07-18 21:00:00 NR -38.3210 140.090 main 51 51 __________P___ -1 -38.3210 140.090 7 14 156
1916198S22130 1917 34 SP EA NOT_NAMED 1916-07-19 00:00:00 NR -39.0000 140.500 main 102 102 __________O___ -1 -39.0000 140.500 7 17 154
1916198S22130 1917 34 SP EA NOT_NAMED 1916-07-19 03:00:00 NR -39.8385 141.045 main 159 159 __________P___ -1 -39.8385 141.045 7 20 152
1916198S22130 1917 34 SP EA NOT_NAMED 1916-07-19 06:00:00 NR -40.7613 141.703 main 243 192 __________P___ -1 -40.7613 141.703 7 22 150
1916198S22130 1917 34 SP EA NOT_NAMED 1916-07-19 09:00:00 NR -41.7034 142.460 main 185 161 __________P___ -1 -41.7034 142.460 7 22 147
1916198S22130 1917 34 SP EA NOT_NAMED 1916-07-19 12:00:00 NR -42.6000 143.300 main 161 114 __________O___ -1 -42.6000 143.300 7 21 143
1916198S22130 1917 34 SP EA NOT_NAMED 1916-07-19 15:00:00 NR -43.4019 144.206 main 114 84 __________P___ -1 -43.4019 144.206 7 20 138
1916198S22130 1917 34 SP EA NOT_NAMED 1916-07-19 18:00:00 NR -44.1193 145.165 main 84 84 __________P___ -1 -44.1193 145.165 7 20 134
1916198S22130 1917 34 SP EA NOT_NAMED 1916-07-19 21:00:00 NR -44.7771 146.167 main 134 134 __________P___ -1 -44.7771 146.167 7 19 132
1916198S22130 1917 34 SP EA NOT_NAMED 1916-07-20 00:00:00 NR -45.4000 147.200 main 201 __________O___ -1 -45.4000 147.200 7 19 131

About IBTrACS Database

This database is a web-friendly format of International Best Track Archive for Climate Stewardship (IBTrACS), a global best track data archive curated by NOAA dating back to 1842.

Updated: 2021-10-21